sensor_id;sensor_type;location;lat;lon;timestamp;P1;durP1;ratioP1;P2;durP2;ratioP2
40503;SDS011;42292;49.048;8.374;2022-07-06T00:02:08;3.92;;;1.83;;
40503;SDS011;42292;49.048;8.374;2022-07-06T00:04:34;3.00;;;1.70;;
40503;SDS011;42292;49.048;8.374;2022-07-06T00:07:00;4.47;;;1.83;;
40503;SDS011;42292;49.048;8.374;2022-07-06T00:09:25;3.00;;;1.90;;
40503;SDS011;42292;49.048;8.374;2022-07-06T00:11:53;4.70;;;1.90;;
40503;SDS011;42292;49.048;8.374;2022-07-06T00:14:21;6.50;;;2.10;;
40503;SDS011;42292;49.048;8.374;2022-07-06T00:16:47;7.68;;;2.10;;
40503;SDS011;42292;49.048;8.374;2022-07-06T00:19:12;4.23;;;2.00;;
40503;SDS011;42292;49.048;8.374;2022-07-06T00:21:41;3.63;;;2.00;;
40503;SDS011;42292;49.048;8.374;2022-07-06T00:24:06;6.80;;;2.28;;
40503;SDS011;42292;49.048;8.374;2022-07-06T00:26:32;3.30;;;2.00;;
40503;SDS011;42292;49.048;8.374;2022-07-06T00:28:58;3.70;;;1.90;;
40503;SDS011;42292;49.048;8.374;2022-07-06T00:31:23;3.28;;;2.05;;
40503;SDS011;42292;49.048;8.374;2022-07-06T00:33:49;6.47;;;2.28;;
40503;SDS011;42292;49.048;8.374;2022-07-06T00:36:17;6.05;;;2.30;;
40503;SDS011;42292;49.048;8.374;2022-07-06T00:38:43;6.45;;;2.65;;
40503;SDS011;42292;49.048;8.374;2022-07-06T00:41:11;5.00;;;2.30;;
40503;SDS011;42292;49.048;8.374;2022-07-06T00:43:51;3.97;;;2.28;;
40503;SDS011;42292;49.048;8.374;2022-07-06T00:46:22;5.68;;;2.63;;
40503;SDS011;42292;49.048;8.374;2022-07-06T00:48:55;3.42;;;2.20;;
40503;SDS011;42292;49.048;8.374;2022-07-06T00:51:22;4.22;;;2.25;;
40503;SDS011;42292;49.048;8.374;2022-07-06T00:53:54;4.00;;;2.30;;
40503;SDS011;42292;49.048;8.374;2022-07-06T00:56:23;6.25;;;2.30;;
40503;SDS011;42292;49.048;8.374;2022-07-06T00:58:49;6.90;;;2.63;;
40503;SDS011;42292;49.048;8.374;2022-07-06T01:01:17;4.90;;;2.40;;
40503;SDS011;42292;49.048;8.374;2022-07-06T01:03:43;4.32;;;2.22;;
40503;SDS011;42292;49.048;8.374;2022-07-06T01:06:08;6.57;;;2.67;;
40503;SDS011;42292;49.048;8.374;2022-07-06T01:08:38;6.40;;;2.85;;
40503;SDS011;42292;49.048;8.374;2022-07-06T01:11:04;6.32;;;2.60;;
40503;SDS011;42292;49.048;8.374;2022-07-06T01:13:32;6.80;;;2.80;;
40503;SDS011;42292;49.048;8.374;2022-07-06T01:15:58;9.27;;;2.90;;
40503;SDS011;42292;49.048;8.374;2022-07-06T01:18:24;6.23;;;2.57;;
40503;SDS011;42292;49.048;8.374;2022-07-06T01:20:50;4.72;;;2.50;;
40503;SDS011;42292;49.048;8.374;2022-07-06T01:23:16;4.38;;;2.40;;
40503;SDS011;42292;49.048;8.374;2022-07-06T01:25:41;4.30;;;2.50;;
40503;SDS011;42292;49.048;8.374;2022-07-06T01:28:07;9.00;;;2.80;;
40503;SDS011;42292;49.048;8.374;2022-07-06T01:30:32;5.07;;;3.10;;
40503;SDS011;42292;49.048;8.374;2022-07-06T01:32:58;4.00;;;2.42;;
40503;SDS011;42292;49.048;8.374;2022-07-06T01:35:24;7.13;;;2.57;;
40503;SDS011;42292;49.048;8.374;2022-07-06T01:37:53;6.35;;;3.20;;
40503;SDS011;42292;49.048;8.374;2022-07-06T01:40:19;4.32;;;2.60;;
40503;SDS011;42292;49.048;8.374;2022-07-06T01:42:44;4.93;;;2.75;;
40503;SDS011;42292;49.048;8.374;2022-07-06T01:45:10;7.03;;;2.90;;
40503;SDS011;42292;49.048;8.374;2022-07-06T01:47:38;6.20;;;2.85;;
40503;SDS011;42292;49.048;8.374;2022-07-06T01:50:07;4.20;;;2.70;;
40503;SDS011;42292;49.048;8.374;2022-07-06T01:52:33;5.60;;;2.70;;
40503;SDS011;42292;49.048;8.374;2022-07-06T01:54:59;6.47;;;3.10;;
40503;SDS011;42292;49.048;8.374;2022-07-06T01:57:26;3.57;;;2.77;;
40503;SDS011;42292;49.048;8.374;2022-07-06T01:59:52;3.70;;;2.65;;
40503;SDS011;42292;49.048;8.374;2022-07-06T02:02:18;4.35;;;2.70;;
40503;SDS011;42292;49.048;8.374;2022-07-06T02:04:48;6.13;;;2.95;;
40503;SDS011;42292;49.048;8.374;2022-07-06T02:07:16;4.07;;;2.50;;
40503;SDS011;42292;49.048;8.374;2022-07-06T02:09:42;6.30;;;2.80;;
40503;SDS011;42292;49.048;8.374;2022-07-06T02:12:07;5.43;;;3.10;;
40503;SDS011;42292;49.048;8.374;2022-07-06T02:14:33;4.15;;;2.70;;
40503;SDS011;42292;49.048;8.374;2022-07-06T02:16:58;5.07;;;2.90;;
40503;SDS011;42292;49.048;8.374;2022-07-06T02:19:24;5.25;;;2.58;;
40503;SDS011;42292;49.048;8.374;2022-07-06T02:21:50;4.90;;;2.30;;
40503;SDS011;42292;49.048;8.374;2022-07-06T02:24:18;4.30;;;2.75;;
40503;SDS011;42292;49.048;8.374;2022-07-06T02:26:46;5.70;;;2.55;;
40503;SDS011;42292;49.048;8.374;2022-07-06T02:29:12;6.93;;;2.53;;
40503;SDS011;42292;49.048;8.374;2022-07-06T02:31:38;4.80;;;2.53;;
40503;SDS011;42292;49.048;8.374;2022-07-06T02:34:05;4.60;;;2.83;;
40503;SDS011;42292;49.048;8.374;2022-07-06T02:36:33;4.85;;;2.47;;
40503;SDS011;42292;49.048;8.374;2022-07-06T02:39:01;5.35;;;2.60;;
40503;SDS011;42292;49.048;8.374;2022-07-06T02:41:27;3.27;;;2.03;;
40503;SDS011;42292;49.048;8.374;2022-07-06T02:43:55;5.53;;;2.47;;
40503;SDS011;42292;49.048;8.374;2022-07-06T02:46:21;4.50;;;2.72;;
40503;SDS011;42292;49.048;8.374;2022-07-06T02:48:49;7.65;;;2.80;;
40503;SDS011;42292;49.048;8.374;2022-07-06T02:51:14;7.20;;;2.58;;
40503;SDS011;42292;49.048;8.374;2022-07-06T02:53:42;4.17;;;2.40;;
40503;SDS011;42292;49.048;8.374;2022-07-06T02:56:10;5.25;;;2.65;;
40503;SDS011;42292;49.048;8.374;2022-07-06T02:58:36;5.10;;;2.73;;
40503;SDS011;42292;49.048;8.374;2022-07-06T03:01:02;6.07;;;2.33;;
40503;SDS011;42292;49.048;8.374;2022-07-06T03:03:30;5.05;;;2.63;;
40503;SDS011;42292;49.048;8.374;2022-07-06T03:05:55;6.30;;;2.43;;
40503;SDS011;42292;49.048;8.374;2022-07-06T03:08:21;5.30;;;2.43;;
40503;SDS011;42292;49.048;8.374;2022-07-06T03:10:47;4.03;;;2.20;;
40503;SDS011;42292;49.048;8.374;2022-07-06T03:13:12;4.90;;;2.22;;
40503;SDS011;42292;49.048;8.374;2022-07-06T03:15:40;5.53;;;2.30;;
40503;SDS011;42292;49.048;8.374;2022-07-06T03:18:08;4.83;;;2.40;;
40503;SDS011;42292;49.048;8.374;2022-07-06T03:20:33;6.57;;;2.33;;
40503;SDS011;42292;49.048;8.374;2022-07-06T03:22:59;4.40;;;2.20;;
40503;SDS011;42292;49.048;8.374;2022-07-06T03:25:27;3.22;;;2.33;;
40503;SDS011;42292;49.048;8.374;2022-07-06T03:27:52;3.95;;;2.13;;
40503;SDS011;42292;49.048;8.374;2022-07-06T03:30:18;3.38;;;2.05;;
40503;SDS011;42292;49.048;8.374;2022-07-06T03:32:46;4.22;;;2.30;;
40503;SDS011;42292;49.048;8.374;2022-07-06T03:35:14;4.53;;;2.17;;
40503;SDS011;42292;49.048;8.374;2022-07-06T03:37:44;5.60;;;2.33;;
40503;SDS011;42292;49.048;8.374;2022-07-06T03:40:12;4.23;;;2.10;;
40503;SDS011;42292;49.048;8.374;2022-07-06T03:42:38;3.55;;;2.38;;
40503;SDS011;42292;49.048;8.374;2022-07-06T03:45:04;3.83;;;2.10;;
40503;SDS011;42292;49.048;8.374;2022-07-06T03:47:30;5.35;;;2.20;;
40503;SDS011;42292;49.048;8.374;2022-07-06T03:49:56;3.97;;;2.10;;
40503;SDS011;42292;49.048;8.374;2022-07-06T03:52:21;2.63;;;1.50;;
40503;SDS011;42292;49.048;8.374;2022-07-06T03:54:50;6.23;;;2.03;;
40503;SDS011;42292;49.048;8.374;2022-07-06T03:57:15;3.00;;;1.80;;
40503;SDS011;42292;49.048;8.374;2022-07-06T03:59:41;3.55;;;2.00;;
40503;SDS011;42292;49.048;8.374;2022-07-06T04:02:07;5.30;;;2.10;;
40503;SDS011;42292;49.048;8.374;2022-07-06T04:04:33;4.90;;;1.93;;
40503;SDS011;42292;49.048;8.374;2022-07-06T04:07:01;4.43;;;1.92;;
40503;SDS011;42292;49.048;8.374;2022-07-06T04:09:27;3.23;;;2.10;;
40503;SDS011;42292;49.048;8.374;2022-07-06T04:11:52;4.73;;;2.10;;
40503;SDS011;42292;49.048;8.374;2022-07-06T04:14:18;6.20;;;2.00;;
40503;SDS011;42292;49.048;8.374;2022-07-06T04:16:43;4.40;;;1.97;;
40503;SDS011;42292;49.048;8.374;2022-07-06T04:19:09;2.83;;;1.80;;
40503;SDS011;42292;49.048;8.374;2022-07-06T04:21:35;3.77;;;1.80;;
40503;SDS011;42292;49.048;8.374;2022-07-06T04:24:00;4.03;;;1.83;;
40503;SDS011;42292;49.048;8.374;2022-07-06T04:26:26;3.72;;;1.92;;
40503;SDS011;42292;49.048;8.374;2022-07-06T04:28:52;3.55;;;1.50;;
40503;SDS011;42292;49.048;8.374;2022-07-06T04:31:20;3.35;;;1.60;;
40503;SDS011;42292;49.048;8.374;2022-07-06T04:33:45;3.38;;;1.80;;
40503;SDS011;42292;49.048;8.374;2022-07-06T04:36:11;5.43;;;1.80;;
40503;SDS011;42292;49.048;8.374;2022-07-06T04:38:37;5.20;;;1.70;;
40503;SDS011;42292;49.048;8.374;2022-07-06T04:41:02;6.37;;;1.90;;
40503;SDS011;42292;49.048;8.374;2022-07-06T04:43:28;4.27;;;2.00;;
40503;SDS011;42292;49.048;8.374;2022-07-06T04:45:54;4.03;;;1.98;;
40503;SDS011;42292;49.048;8.374;2022-07-06T04:48:19;3.85;;;1.88;;
40503;SDS011;42292;49.048;8.374;2022-07-06T04:50:45;2.65;;;1.73;;
40503;SDS011;42292;49.048;8.374;2022-07-06T04:53:13;3.97;;;1.90;;
40503;SDS011;42292;49.048;8.374;2022-07-06T04:55:38;3.72;;;1.80;;
40503;SDS011;42292;49.048;8.374;2022-07-06T04:58:06;5.00;;;2.00;;
40503;SDS011;42292;49.048;8.374;2022-07-06T05:00:32;3.33;;;1.50;;
40503;SDS011;42292;49.048;8.374;2022-07-06T05:02:57;3.47;;;1.60;;
40503;SDS011;42292;49.048;8.374;2022-07-06T05:05:23;2.90;;;1.60;;
40503;SDS011;42292;49.048;8.374;2022-07-06T05:07:51;4.35;;;1.70;;
40503;SDS011;42292;49.048;8.374;2022-07-06T05:10:17;3.67;;;2.00;;
40503;SDS011;42292;49.048;8.374;2022-07-06T05:12:42;4.03;;;2.07;;
40503;SDS011;42292;49.048;8.374;2022-07-06T05:15:08;5.07;;;1.63;;
40503;SDS011;42292;49.048;8.374;2022-07-06T05:17:34;3.85;;;1.70;;
40503;SDS011;42292;49.048;8.374;2022-07-06T05:20:02;5.35;;;1.80;;
40503;SDS011;42292;49.048;8.374;2022-07-06T05:22:31;4.05;;;1.60;;
40503;SDS011;42292;49.048;8.374;2022-07-06T05:24:57;4.15;;;1.67;;
40503;SDS011;42292;49.048;8.374;2022-07-06T05:27:22;3.83;;;1.77;;
40503;SDS011;42292;49.048;8.374;2022-07-06T05:29:49;4.32;;;1.80;;
40503;SDS011;42292;49.048;8.374;2022-07-06T05:32:14;3.17;;;1.60;;
40503;SDS011;42292;49.048;8.374;2022-07-06T05:34:42;3.75;;;1.90;;
40503;SDS011;42292;49.048;8.374;2022-07-06T05:37:08;5.43;;;2.08;;
40503;SDS011;42292;49.048;8.374;2022-07-06T05:39:36;3.92;;;1.70;;
40503;SDS011;42292;49.048;8.374;2022-07-06T05:42:03;4.78;;;1.70;;
40503;SDS011;42292;49.048;8.374;2022-07-06T05:44:33;4.20;;;2.08;;
40503;SDS011;42292;49.048;8.374;2022-07-06T05:46:58;5.57;;;2.00;;
40503;SDS011;42292;49.048;8.374;2022-07-06T05:49:44;5.38;;;2.03;;
40503;SDS011;42292;49.048;8.374;2022-07-06T05:52:28;4.75;;;2.40;;
40503;SDS011;42292;49.048;8.374;2022-07-06T05:55:01;5.45;;;2.53;;
40503;SDS011;42292;49.048;8.374;2022-07-06T05:57:27;5.75;;;2.30;;
40503;SDS011;42292;49.048;8.374;2022-07-06T05:59:52;3.42;;;1.90;;
40503;SDS011;42292;49.048;8.374;2022-07-06T06:02:18;3.92;;;2.00;;
40503;SDS011;42292;49.048;8.374;2022-07-06T06:04:46;5.55;;;2.10;;
40503;SDS011;42292;49.048;8.374;2022-07-06T06:07:11;5.13;;;1.77;;
40503;SDS011;42292;49.048;8.374;2022-07-06T06:09:39;4.82;;;1.80;;
40503;SDS011;42292;49.048;8.374;2022-07-06T06:12:05;6.50;;;2.40;;
40503;SDS011;42292;49.048;8.374;2022-07-06T06:14:35;9.70;;;2.10;;
40503;SDS011;42292;49.048;8.374;2022-07-06T06:17:01;5.03;;;2.43;;
40503;SDS011;42292;49.048;8.374;2022-07-06T06:19:27;4.80;;;2.37;;
40503;SDS011;42292;49.048;8.374;2022-07-06T06:21:52;9.57;;;2.47;;
40503;SDS011;42292;49.048;8.374;2022-07-06T06:24:20;7.07;;;2.40;;
40503;SDS011;42292;49.048;8.374;2022-07-06T06:26:49;5.80;;;2.60;;
40503;SDS011;42292;49.048;8.374;2022-07-06T06:29:14;5.23;;;2.50;;
40503;SDS011;42292;49.048;8.374;2022-07-06T06:31:42;5.80;;;2.30;;
40503;SDS011;42292;49.048;8.374;2022-07-06T06:34:08;5.63;;;2.63;;
40503;SDS011;42292;49.048;8.374;2022-07-06T06:36:36;5.95;;;2.40;;
40503;SDS011;42292;49.048;8.374;2022-07-06T06:39:02;6.30;;;2.70;;
40503;SDS011;42292;49.048;8.374;2022-07-06T06:41:27;4.57;;;2.30;;
40503;SDS011;42292;49.048;8.374;2022-07-06T06:43:55;6.40;;;2.63;;
40503;SDS011;42292;49.048;8.374;2022-07-06T06:46:21;5.33;;;2.03;;
40503;SDS011;42292;49.048;8.374;2022-07-06T06:48:48;5.80;;;2.42;;
40503;SDS011;42292;49.048;8.374;2022-07-06T06:51:14;5.97;;;2.20;;
40503;SDS011;42292;49.048;8.374;2022-07-06T06:53:42;5.60;;;2.37;;
40503;SDS011;42292;49.048;8.374;2022-07-06T06:56:08;3.97;;;2.05;;
40503;SDS011;42292;49.048;8.374;2022-07-06T06:58:36;6.23;;;1.80;;
40503;SDS011;42292;49.048;8.374;2022-07-06T07:01:01;4.13;;;2.27;;
40503;SDS011;42292;49.048;8.374;2022-07-06T07:03:34;4.82;;;2.30;;
40503;SDS011;42292;49.048;8.374;2022-07-06T07:06:00;5.55;;;2.33;;
40503;SDS011;42292;49.048;8.374;2022-07-06T07:08:26;4.50;;;1.65;;
40503;SDS011;42292;49.048;8.374;2022-07-06T07:10:51;5.60;;;2.65;;
40503;SDS011;42292;49.048;8.374;2022-07-06T07:13:17;4.38;;;2.20;;
40503;SDS011;42292;49.048;8.374;2022-07-06T07:15:45;3.13;;;1.80;;
40503;SDS011;42292;49.048;8.374;2022-07-06T07:18:13;4.55;;;2.20;;
40503;SDS011;42292;49.048;8.374;2022-07-06T07:20:38;8.45;;;2.55;;
40503;SDS011;42292;49.048;8.374;2022-07-06T07:23:09;5.97;;;2.17;;
40503;SDS011;42292;49.048;8.374;2022-07-06T07:25:34;6.20;;;2.10;;
40503;SDS011;42292;49.048;8.374;2022-07-06T07:28:00;6.90;;;2.30;;
40503;SDS011;42292;49.048;8.374;2022-07-06T07:30:25;7.43;;;2.40;;
40503;SDS011;42292;49.048;8.374;2022-07-06T07:32:51;7.53;;;2.47;;
40503;SDS011;42292;49.048;8.374;2022-07-06T07:35:20;6.68;;;2.60;;
40503;SDS011;42292;49.048;8.374;2022-07-06T07:37:46;6.35;;;2.33;;
40503;SDS011;42292;49.048;8.374;2022-07-06T07:40:12;5.80;;;2.20;;
40503;SDS011;42292;49.048;8.374;2022-07-06T07:42:37;4.80;;;2.35;;
40503;SDS011;42292;49.048;8.374;2022-07-06T07:45:06;6.38;;;2.13;;
40503;SDS011;42292;49.048;8.374;2022-07-06T07:47:32;5.60;;;1.90;;
40503;SDS011;42292;49.048;8.374;2022-07-06T07:49:59;8.70;;;5.70;;
40503;SDS011;42292;49.048;8.374;2022-07-06T07:52:24;6.90;;;4.47;;
40503;SDS011;42292;49.048;8.374;2022-07-06T07:54:50;5.68;;;2.72;;
40503;SDS011;42292;49.048;8.374;2022-07-06T07:57:15;7.65;;;2.53;;
40503;SDS011;42292;49.048;8.374;2022-07-06T07:59:43;4.05;;;2.00;;
40503;SDS011;42292;49.048;8.374;2022-07-06T08:02:09;4.47;;;2.28;;
40503;SDS011;42292;49.048;8.374;2022-07-06T08:04:35;5.35;;;2.25;;
40503;SDS011;42292;49.048;8.374;2022-07-06T08:07:03;4.43;;;2.17;;
40503;SDS011;42292;49.048;8.374;2022-07-06T08:09:29;5.90;;;2.40;;
40503;SDS011;42292;49.048;8.374;2022-07-06T08:11:54;6.93;;;2.20;;
40503;SDS011;42292;49.048;8.374;2022-07-06T08:14:25;6.05;;;2.63;;
40503;SDS011;42292;49.048;8.374;2022-07-06T08:16:51;5.70;;;2.20;;
40503;SDS011;42292;49.048;8.374;2022-07-06T08:19:17;5.82;;;2.33;;
40503;SDS011;42292;49.048;8.374;2022-07-06T08:21:42;3.90;;;1.60;;
40503;SDS011;42292;49.048;8.374;2022-07-06T08:24:11;4.43;;;2.10;;
40503;SDS011;42292;49.048;8.374;2022-07-06T08:26:38;4.87;;;1.70;;
40503;SDS011;42292;49.048;8.374;2022-07-06T08:29:04;5.60;;;2.37;;
40503;SDS011;42292;49.048;8.374;2022-07-06T08:31:32;4.85;;;2.20;;
40503;SDS011;42292;49.048;8.374;2022-07-06T08:34:00;6.63;;;2.13;;
40503;SDS011;42292;49.048;8.374;2022-07-06T08:36:28;3.47;;;2.00;;
40503;SDS011;42292;49.048;8.374;2022-07-06T08:38:54;6.78;;;2.40;;
40503;SDS011;42292;49.048;8.374;2022-07-06T08:41:26;6.03;;;2.20;;
40503;SDS011;42292;49.048;8.374;2022-07-06T08:43:54;3.37;;;1.60;;
40503;SDS011;42292;49.048;8.374;2022-07-06T08:46:23;5.32;;;2.10;;
40503;SDS011;42292;49.048;8.374;2022-07-06T08:48:49;3.95;;;2.05;;
40503;SDS011;42292;49.048;8.374;2022-07-06T08:51:15;6.45;;;2.05;;
40503;SDS011;42292;49.048;8.374;2022-07-06T08:53:44;4.90;;;1.63;;
40503;SDS011;42292;49.048;8.374;2022-07-06T08:56:13;4.00;;;1.92;;
40503;SDS011;42292;49.048;8.374;2022-07-06T08:58:43;5.67;;;1.93;;
40503;SDS011;42292;49.048;8.374;2022-07-06T09:01:13;5.15;;;1.88;;
40503;SDS011;42292;49.048;8.374;2022-07-06T09:03:41;4.45;;;1.90;;
40503;SDS011;42292;49.048;8.374;2022-07-06T09:06:10;6.87;;;2.30;;
40503;SDS011;42292;49.048;8.374;2022-07-06T09:08:42;4.65;;;2.15;;
40503;SDS011;42292;49.048;8.374;2022-07-06T09:11:09;8.10;;;2.40;;
40503;SDS011;42292;49.048;8.374;2022-07-06T09:13:37;5.63;;;2.03;;
40503;SDS011;42292;49.048;8.374;2022-07-06T09:16:13;3.38;;;2.00;;
40503;SDS011;42292;49.048;8.374;2022-07-06T09:18:41;7.03;;;2.00;;
40503;SDS011;42292;49.048;8.374;2022-07-06T09:21:09;7.05;;;1.95;;
40503;SDS011;42292;49.048;8.374;2022-07-06T09:23:35;5.50;;;2.28;;
40503;SDS011;42292;49.048;8.374;2022-07-06T09:26:02;4.05;;;1.95;;
40503;SDS011;42292;49.048;8.374;2022-07-06T09:28:44;5.10;;;1.98;;
40503;SDS011;42292;49.048;8.374;2022-07-06T09:31:12;6.43;;;1.90;;
40503;SDS011;42292;49.048;8.374;2022-07-06T09:33:38;5.83;;;2.10;;
40503;SDS011;42292;49.048;8.374;2022-07-06T09:36:04;4.82;;;1.70;;
40503;SDS011;42292;49.048;8.374;2022-07-06T09:38:35;4.75;;;2.15;;
40503;SDS011;42292;49.048;8.374;2022-07-06T09:41:00;5.82;;;2.15;;
40503;SDS011;42292;49.048;8.374;2022-07-06T09:43:28;5.27;;;2.07;;
40503;SDS011;42292;49.048;8.374;2022-07-06T09:45:57;4.88;;;2.03;;
40503;SDS011;42292;49.048;8.374;2022-07-06T09:48:26;4.05;;;1.77;;
40503;SDS011;42292;49.048;8.374;2022-07-06T09:50:55;5.15;;;2.10;;
40503;SDS011;42292;49.048;8.374;2022-07-06T09:53:27;4.35;;;2.08;;
40503;SDS011;42292;49.048;8.374;2022-07-06T09:55:57;5.37;;;2.30;;
40503;SDS011;42292;49.048;8.374;2022-07-06T09:58:26;5.28;;;1.95;;
40503;SDS011;42292;49.048;8.374;2022-07-06T10:00:52;4.80;;;2.00;;
40503;SDS011;42292;49.048;8.374;2022-07-06T10:03:21;5.72;;;2.15;;
40503;SDS011;42292;49.048;8.374;2022-07-06T10:05:47;4.80;;;1.88;;
40503;SDS011;42292;49.048;8.374;2022-07-06T10:08:15;4.13;;;1.88;;
40503;SDS011;42292;49.048;8.374;2022-07-06T10:10:43;4.15;;;2.20;;
40503;SDS011;42292;49.048;8.374;2022-07-06T10:13:11;6.93;;;1.97;;
40503;SDS011;42292;49.048;8.374;2022-07-06T10:15:37;3.93;;;2.13;;
40503;SDS011;42292;49.048;8.374;2022-07-06T10:18:07;4.85;;;2.03;;
40503;SDS011;42292;49.048;8.374;2022-07-06T10:20:37;4.13;;;1.73;;
40503;SDS011;42292;49.048;8.374;2022-07-06T10:23:07;5.97;;;1.80;;
40503;SDS011;42292;49.048;8.374;2022-07-06T10:25:35;4.07;;;1.75;;
40503;SDS011;42292;49.048;8.374;2022-07-06T10:28:03;4.30;;;1.90;;
40503;SDS011;42292;49.048;8.374;2022-07-06T10:30:41;3.72;;;1.65;;
40503;SDS011;42292;49.048;8.374;2022-07-06T10:33:10;3.67;;;1.80;;
40503;SDS011;42292;49.048;8.374;2022-07-06T10:35:42;3.08;;;1.88;;
40503;SDS011;42292;49.048;8.374;2022-07-06T10:38:08;3.42;;;1.40;;
40503;SDS011;42292;49.048;8.374;2022-07-06T10:40:39;3.15;;;1.63;;
40503;SDS011;42292;49.048;8.374;2022-07-06T10:43:34;3.42;;;1.52;;
40503;SDS011;42292;49.048;8.374;2022-07-06T10:46:16;4.18;;;1.95;;
40503;SDS011;42292;49.048;8.374;2022-07-06T10:48:45;4.57;;;1.90;;
40503;SDS011;42292;49.048;8.374;2022-07-06T10:51:25;5.00;;;1.90;;
40503;SDS011;42292;49.048;8.374;2022-07-06T10:54:00;7.07;;;1.98;;
40503;SDS011;42292;49.048;8.374;2022-07-06T10:56:38;5.93;;;1.95;;
40503;SDS011;42292;49.048;8.374;2022-07-06T10:59:13;3.83;;;1.63;;
40503;SDS011;42292;49.048;8.374;2022-07-06T11:01:41;5.00;;;1.90;;
40503;SDS011;42292;49.048;8.374;2022-07-06T11:04:43;3.15;;;1.80;;
40503;SDS011;42292;49.048;8.374;2022-07-06T11:07:15;2.53;;;1.40;;
40503;SDS011;42292;49.048;8.374;2022-07-06T11:10:16;4.20;;;1.65;;
40503;SDS011;42292;49.048;8.374;2022-07-06T11:12:41;5.28;;;1.85;;
40503;SDS011;42292;49.048;8.374;2022-07-06T11:15:10;4.43;;;1.60;;
40503;SDS011;42292;49.048;8.374;2022-07-06T11:17:35;3.67;;;1.60;;
40503;SDS011;42292;49.048;8.374;2022-07-06T11:20:13;4.82;;;1.58;;
40503;SDS011;42292;49.048;8.374;2022-07-06T11:22:43;2.83;;;1.30;;
40503;SDS011;42292;49.048;8.374;2022-07-06T11:25:13;5.35;;;1.67;;
40503;SDS011;42292;49.048;8.374;2022-07-06T11:27:42;4.65;;;1.50;;
40503;SDS011;42292;49.048;8.374;2022-07-06T11:30:08;6.57;;;1.60;;
40503;SDS011;42292;49.048;8.374;2022-07-06T11:32:37;3.22;;;1.60;;
40503;SDS011;42292;49.048;8.374;2022-07-06T11:35:03;4.22;;;1.80;;
40503;SDS011;42292;49.048;8.374;2022-07-06T11:37:28;4.45;;;1.67;;
40503;SDS011;42292;49.048;8.374;2022-07-06T11:39:56;4.63;;;1.80;;
40503;SDS011;42292;49.048;8.374;2022-07-06T11:42:24;4.15;;;1.52;;
40503;SDS011;42292;49.048;8.374;2022-07-06T11:44:50;2.08;;;1.40;;
40503;SDS011;42292;49.048;8.374;2022-07-06T11:47:18;5.22;;;1.73;;
40503;SDS011;42292;49.048;8.374;2022-07-06T11:49:49;4.18;;;1.60;;
40503;SDS011;42292;49.048;8.374;2022-07-06T11:52:17;2.83;;;1.55;;
40503;SDS011;42292;49.048;8.374;2022-07-06T11:54:45;5.43;;;1.83;;
40503;SDS011;42292;49.048;8.374;2022-07-06T11:57:15;3.95;;;1.67;;
40503;SDS011;42292;49.048;8.374;2022-07-06T11:59:41;3.40;;;1.50;;
40503;SDS011;42292;49.048;8.374;2022-07-06T12:02:14;3.25;;;1.50;;
40503;SDS011;42292;49.048;8.374;2022-07-06T12:04:42;3.75;;;1.30;;
40503;SDS011;42292;49.048;8.374;2022-07-06T12:07:10;4.25;;;1.60;;
40503;SDS011;42292;49.048;8.374;2022-07-06T12:09:40;4.70;;;1.98;;
40503;SDS011;42292;49.048;8.374;2022-07-06T12:12:09;3.50;;;1.55;;
40503;SDS011;42292;49.048;8.374;2022-07-06T12:14:37;2.83;;;1.27;;
40503;SDS011;42292;49.048;8.374;2022-07-06T12:17:05;4.15;;;1.40;;
40503;SDS011;42292;49.048;8.374;2022-07-06T12:19:40;4.13;;;1.58;;
40503;SDS011;42292;49.048;8.374;2022-07-06T12:22:09;2.08;;;1.10;;
40503;SDS011;42292;49.048;8.374;2022-07-06T12:24:35;4.40;;;1.90;;
40503;SDS011;42292;49.048;8.374;2022-07-06T12:27:16;3.35;;;1.40;;
40503;SDS011;42292;49.048;8.374;2022-07-06T12:29:43;3.30;;;1.20;;
40503;SDS011;42292;49.048;8.374;2022-07-06T12:32:15;2.78;;;1.20;;
40503;SDS011;42292;49.048;8.374;2022-07-06T12:34:45;3.45;;;1.00;;
40503;SDS011;42292;49.048;8.374;2022-07-06T12:37:13;2.30;;;1.10;;
40503;SDS011;42292;49.048;8.374;2022-07-06T12:39:47;4.95;;;1.45;;
40503;SDS011;42292;49.048;8.374;2022-07-06T12:42:20;2.92;;;1.20;;
40503;SDS011;42292;49.048;8.374;2022-07-06T12:44:49;2.50;;;1.20;;
40503;SDS011;42292;49.048;8.374;2022-07-06T12:47:17;5.90;;;1.42;;
40503;SDS011;42292;49.048;8.374;2022-07-06T12:49:48;2.90;;;1.10;;
40503;SDS011;42292;49.048;8.374;2022-07-06T12:52:28;3.08;;;1.20;;
40503;SDS011;42292;49.048;8.374;2022-07-06T12:54:54;2.23;;;1.10;;
40503;SDS011;42292;49.048;8.374;2022-07-06T12:57:23;2.20;;;1.23;;
40503;SDS011;42292;49.048;8.374;2022-07-06T13:02:21;3.00;;;1.27;;
40503;SDS011;42292;49.048;8.374;2022-07-06T13:04:55;3.53;;;1.20;;
40503;SDS011;42292;49.048;8.374;2022-07-06T13:07:26;3.25;;;1.50;;
40503;SDS011;42292;49.048;8.374;2022-07-06T13:09:53;2.60;;;1.10;;
40503;SDS011;42292;49.048;8.374;2022-07-06T13:12:21;2.08;;;1.00;;
40503;SDS011;42292;49.048;8.374;2022-07-06T13:14:49;2.33;;;1.13;;
40503;SDS011;42292;49.048;8.374;2022-07-06T13:17:15;2.90;;;1.10;;
40503;SDS011;42292;49.048;8.374;2022-07-06T13:19:41;5.40;;;1.05;;
40503;SDS011;42292;49.048;8.374;2022-07-06T13:22:09;2.63;;;1.10;;
40503;SDS011;42292;49.048;8.374;2022-07-06T13:24:37;2.58;;;1.08;;
40503;SDS011;42292;49.048;8.374;2022-07-06T13:27:03;2.63;;;1.00;;
40503;SDS011;42292;49.048;8.374;2022-07-06T13:29:29;2.80;;;1.02;;
40503;SDS011;42292;49.048;8.374;2022-07-06T13:31:58;3.22;;;1.30;;
40503;SDS011;42292;49.048;8.374;2022-07-06T13:34:26;2.75;;;1.08;;
40503;SDS011;42292;49.048;8.374;2022-07-06T13:36:53;1.58;;;1.08;;
40503;SDS011;42292;49.048;8.374;2022-07-06T13:39:19;3.70;;;1.50;;
40503;SDS011;42292;49.048;8.374;2022-07-06T13:41:45;3.30;;;1.10;;
40503;SDS011;42292;49.048;8.374;2022-07-06T13:44:13;3.58;;;0.95;;
40503;SDS011;42292;49.048;8.374;2022-07-06T13:46:40;3.67;;;1.10;;
40503;SDS011;42292;49.048;8.374;2022-07-06T13:49:09;2.07;;;0.90;;
40503;SDS011;42292;49.048;8.374;2022-07-06T13:51:35;3.35;;;1.10;;
40503;SDS011;42292;49.048;8.374;2022-07-06T13:54:01;3.30;;;1.08;;
40503;SDS011;42292;49.048;8.374;2022-07-06T13:56:27;2.55;;;0.80;;
40503;SDS011;42292;49.048;8.374;2022-07-06T13:58:55;2.45;;;0.90;;
40503;SDS011;42292;49.048;8.374;2022-07-06T14:01:23;1.67;;;0.80;;
40503;SDS011;42292;49.048;8.374;2022-07-06T14:03:49;2.25;;;0.90;;
40503;SDS011;42292;49.048;8.374;2022-07-06T14:06:15;3.22;;;1.20;;
40503;SDS011;42292;49.048;8.374;2022-07-06T14:08:41;3.00;;;0.95;;
40503;SDS011;42292;49.048;8.374;2022-07-06T14:11:07;2.30;;;0.80;;
40503;SDS011;42292;49.048;8.374;2022-07-06T14:13:33;1.40;;;0.82;;
40503;SDS011;42292;49.048;8.374;2022-07-06T14:16:00;2.37;;;0.90;;
40503;SDS011;42292;49.048;8.374;2022-07-06T14:18:26;2.53;;;0.63;;
40503;SDS011;42292;49.048;8.374;2022-07-06T14:20:52;1.85;;;0.80;;
40503;SDS011;42292;49.048;8.374;2022-07-06T14:23:21;2.47;;;0.70;;
40503;SDS011;42292;49.048;8.374;2022-07-06T14:25:47;2.00;;;0.88;;
40503;SDS011;42292;49.048;8.374;2022-07-06T14:28:14;3.08;;;0.88;;
40503;SDS011;42292;49.048;8.374;2022-07-06T14:30:40;1.83;;;0.75;;
40503;SDS011;42292;49.048;8.374;2022-07-06T14:33:07;2.13;;;0.65;;
40503;SDS011;42292;49.048;8.374;2022-07-06T14:38:04;1.52;;;0.80;;
40503;SDS011;42292;49.048;8.374;2022-07-06T14:40:32;1.67;;;0.70;;
40503;SDS011;42292;49.048;8.374;2022-07-06T14:43:00;1.70;;;0.70;;
40503;SDS011;42292;49.048;8.374;2022-07-06T14:45:26;1.75;;;0.65;;
40503;SDS011;42292;49.048;8.374;2022-07-06T14:47:57;1.23;;;0.82;;
40503;SDS011;42292;49.048;8.374;2022-07-06T14:50:23;3.20;;;0.67;;
40503;SDS011;42292;49.048;8.374;2022-07-06T14:52:49;1.67;;;0.68;;
40503;SDS011;42292;49.048;8.374;2022-07-06T14:55:15;2.55;;;0.82;;
40503;SDS011;42292;49.048;8.374;2022-07-06T14:57:43;2.20;;;0.70;;